Time;durP1;ratioP1;P1;durP2;ratioP2;P2;SDS_P1;SDS_P2;PMS_P1;PMS_P2;Temp;Humidity;BMP_temperature;BMP_pressure;BME280_temperature;BME280_humidity;BME280_pressure;Samples;Min_cycle;Max_cycle;Signal;HPM_P1;HPM_P2
2021/03/13 00:00:51;;;;;;;0.40;0.15;;;3.20;99.90;;;;;;5082485;28;20469;-71
2021/03/13 00:03:17;;;;;;;1.23;0.50;;;3.20;99.90;;;;;;5084020;28;20020;-72
2021/03/13 00:05:45;;;;;;;1.60;0.60;;;3.20;99.90;;;;;;5084166;28;20048;-70
2021/03/13 00:08:12;;;;;;;1.40;0.55;;;3.20;99.90;;;;;;5083922;28;20028;-70
2021/03/13 00:10:40;;;;;;;0.60;0.40;;;3.20;99.90;;;;;;5083823;28;20060;-70
2021/03/13 00:13:08;;;;;;;5.70;1.02;;;3.20;99.90;;;;;;5083815;28;20040;-71
2021/03/13 00:15:34;;;;;;;4.53;0.88;;;3.10;99.90;;;;;;5082725;28;20053;-74
2021/03/13 00:18:01;;;;;;;2.53;0.63;;;3.30;99.90;;;;;;5084574;28;20036;-72
2021/03/13 00:20:29;;;;;;;0.35;0.22;;;3.20;99.90;;;;;;5084672;28;20048;-72
2021/03/13 00:22:55;;;;;;;3.10;0.88;;;3.30;99.90;;;;;;5084580;28;20029;-71
2021/03/13 00:25:22;;;;;;;0.80;0.40;;;3.30;99.90;;;;;;5084639;28;20062;-70
2021/03/13 00:27:48;;;;;;;2.67;1.33;;;3.30;99.90;;;;;;5084832;28;20029;-70
2021/03/13 00:30:29;;;;;;;10.48;0.88;;;3.30;99.90;;;;;;5084562;28;20029;-75
2021/03/13 00:33:04;;;;;;;4.57;1.50;;;3.20;99.90;;;;;;5083226;28;20024;-71
2021/03/13 00:35:31;;;;;;;3.65;1.08;;;3.20;99.90;;;;;;5084958;28;20843;-71
2021/03/13 00:37:57;;;;;;;2.17;1.15;;;3.20;99.90;;;;;;5083230;28;20024;-71
2021/03/13 00:40:25;;;;;;;6.65;1.70;;;3.20;99.90;;;;;;5083200;28;20024;-73
2021/03/13 00:42:52;;;;;;;0.77;0.70;;;3.30;99.90;;;;;;5084485;28;20091;-71
2021/03/13 00:45:20;;;;;;;2.33;0.93;;;3.30;99.90;;;;;;5084598;28;20039;-69
2021/03/13 00:47:47;;;;;;;6.55;1.35;;;3.30;99.90;;;;;;5084311;28;20021;-71
2021/03/13 00:50:16;;;;;;;1.75;0.88;;;3.20;99.90;;;;;;5084538;28;20485;-70
2021/03/13 00:52:42;;;;;;;1.95;1.00;;;3.30;99.90;;;;;;5084455;28;20024;-71
2021/03/13 00:55:09;;;;;;;3.30;1.27;;;3.30;99.90;;;;;;5084796;28;20028;-71
2021/03/13 00:57:35;;;;;;;2.22;0.73;;;3.20;99.90;;;;;;5084491;28;20035;-73
2021/03/13 01:00:11;;;;;;;1.35;1.08;;;3.20;99.90;;;;;;5082402;28;20021;-72
2021/03/13 01:02:37;;;;;;;3.85;1.42;;;3.20;99.90;;;;;;5070009;28;20040;-72
2021/03/13 01:05:04;;;;;;;1.52;0.93;;;3.20;99.90;;;;;;5066487;28;20025;-73
2021/03/13 01:07:31;;;;;;;3.60;1.33;;;3.30;99.90;;;;;;5066665;28;20029;-73
2021/03/13 01:09:56;;;;;;;3.63;1.70;;;3.30;99.90;;;;;;5083340;28;20114;-71
2021/03/13 01:12:22;;;;;;;3.70;1.77;;;3.30;99.90;;;;;;5067757;28;20481;-72
2021/03/13 01:14:48;;;;;;;10.45;1.48;;;3.40;99.90;;;;;;5068121;28;20036;-72
2021/03/13 01:17:13;;;;;;;3.95;1.83;;;3.40;99.90;;;;;;5067988;28;20040;-71
2021/03/13 01:19:39;;;;;;;5.18;2.25;;;3.40;99.90;;;;;;5069922;28;20033;-74
2021/03/13 01:22:05;;;;;;;3.58;1.65;;;3.50;99.90;;;;;;5087853;28;20029;-71
2021/03/13 01:24:30;;;;;;;4.10;2.20;;;3.50;99.90;;;;;;5087643;28;20078;-73
2021/03/13 01:26:56;;;;;;;8.80;2.50;;;3.60;99.90;;;;;;5086418;28;20581;-71
2021/03/13 01:29:21;;;;;;;5.78;2.53;;;3.60;99.90;;;;;;5086365;28;20032;-73
2021/03/13 01:31:49;;;;;;;22.95;3.17;;;3.60;99.90;;;;;;5086397;28;20064;-72
2021/03/13 01:34:15;;;;;;;5.63;2.72;;;3.70;99.90;;;;;;5087718;28;20056;-70
2021/03/13 01:36:41;;;;;;;7.07;3.45;;;3.80;99.90;;;;;;5087454;28;20050;-74
2021/03/13 01:39:06;;;;;;;11.82;3.80;;;3.70;99.90;;;;;;5087409;28;20033;-74
2021/03/13 01:41:32;;;;;;;14.10;3.22;;;3.80;99.90;;;;;;5087137;28;20081;-72
2021/03/13 01:43:58;;;;;;;6.50;3.38;;;3.80;99.90;;;;;;5087431;28;20089;-72
2021/03/13 01:46:23;;;;;;;10.13;2.40;;;3.80;99.90;;;;;;5086084;28;20112;-73
2021/03/13 01:48:52;;;;;;;5.53;2.50;;;3.80;99.90;;;;;;5087180;28;20059;-72
2021/03/13 01:51:19;;;;;;;5.70;2.25;;;3.80;99.90;;;;;;5087039;28;20040;-75
2021/03/13 01:53:49;;;;;;;9.57;3.30;;;3.80;99.90;;;;;;5087498;28;20028;-71
2021/03/13 01:56:17;;;;;;;12.82;4.43;;;3.80;99.90;;;;;;5087481;28;20021;-73
2021/03/13 01:58:44;;;;;;;5.65;2.50;;;3.70;99.90;;;;;;5087332;28;20064;-73
2021/03/13 02:01:12;;;;;;;6.50;3.05;;;3.70;99.90;;;;;;5086170;28;20021;-72
2021/03/13 02:03:47;;;;;;;15.45;2.70;;;3.70;99.90;;;;;;5087481;28;20046;-72
2021/03/13 02:06:12;;;;;;;5.63;2.58;;;3.60;99.90;;;;;;5087229;28;20060;-71
2021/03/13 02:08:52;;;;;;;11.40;1.90;;;3.60;99.90;;;;;;5085652;28;20086;-71
2021/03/13 02:11:46;;;;;;;4.93;2.35;;;3.60;99.90;;;;;;5086895;28;20052;-72
2021/03/13 02:14:33;;;;;;;10.65;2.25;;;3.50;99.90;;;;;;5085716;28;20088;-72
2021/03/13 02:17:08;;;;;;;2.20;1.25;;;3.50;99.90;;;;;;5081969;28;20071;-71
2021/03/13 02:20:02;;;;;;;4.13;2.38;;;3.50;99.90;;;;;;5080999;28;20028;-71
2021/03/13 02:22:42;;;;;;;5.03;2.28;;;3.40;99.90;;;;;;5082314;28;20028;-71
2021/03/13 02:25:30;;;;;;;5.68;2.50;;;3.40;99.90;;;;;;5085094;28;20515;-72
2021/03/13 02:28:22;;;;;;;10.48;2.10;;;3.30;99.90;;;;;;5085126;28;20030;-70
2021/03/13 02:30:50;;;;;;;13.43;2.55;;;3.30;99.90;;;;;;5076134;28;20076;-72
2021/03/13 02:33:33;;;;;;;10.93;3.03;;;3.30;99.90;;;;;;5085459;28;20131;-73
2021/03/13 02:36:01;;;;;;;3.83;1.50;;;3.20;99.90;;;;;;5086480;28;20539;-71
2021/03/13 02:38:42;;;;;;;5.82;2.60;;;3.20;99.90;;;;;;5086566;28;20013;-72
2021/03/13 02:41:20;;;;;;;3.22;2.08;;;3.20;99.90;;;;;;5086457;28;20045;-71
2021/03/13 02:43:52;;;;;;;6.10;2.75;;;3.20;99.90;;;;;;5086259;28;20048;-72
2021/03/13 02:46:21;;;;;;;5.97;2.65;;;3.10;99.90;;;;;;5086207;28;20021;-73
2021/03/13 02:48:48;;;;;;;9.65;3.17;;;3.10;99.90;;;;;;5086491;28;20032;-70
2021/03/13 02:51:17;;;;;;;7.13;2.70;;;3.10;99.90;;;;;;5084432;28;20032;-72
2021/03/13 02:53:48;;;;;;;9.95;3.42;;;3.10;99.90;;;;;;5086089;28;20111;-73
2021/03/13 02:56:19;;;;;;;7.43;3.00;;;3.10;99.90;;;;;;5086196;28;20484;-70
2021/03/13 02:58:48;;;;;;;21.70;2.85;;;3.10;99.90;;;;;;5086374;28;20368;-71
2021/03/13 03:01:15;;;;;;;4.63;2.08;;;3.10;99.90;;;;;;5086069;28;20025;-72
2021/03/13 03:03:42;;;;;;;8.25;3.72;;;3.10;99.90;;;;;;5086242;28;20024;-71
2021/03/13 03:06:09;;;;;;;5.18;2.53;;;3.20;99.90;;;;;;5086164;28;20029;-70
2021/03/13 03:08:37;;;;;;;10.40;2.92;;;3.10;99.90;;;;;;5085767;28;20028;-71
2021/03/13 03:11:04;;;;;;;7.47;2.67;;;3.10;99.90;;;;;;5084173;28;20049;-69
2021/03/13 03:13:29;;;;;;;8.00;2.47;;;3.20;99.90;;;;;;5084530;28;20048;-70
2021/03/13 03:16:02;;;;;;;5.97;2.35;;;3.20;99.90;;;;;;5085978;28;20028;-72
2021/03/13 03:18:29;;;;;;;5.65;3.00;;;3.20;99.90;;;;;;5085565;28;20025;-72
2021/03/13 03:20:56;;;;;;;3.45;2.22;;;3.20;99.90;;;;;;5084241;28;20115;-71
2021/03/13 03:23:22;;;;;;;9.20;3.67;;;3.20;99.90;;;;;;5085525;28;20107;-70
2021/03/13 03:25:54;;;;;;;4.05;1.85;;;3.20;99.90;;;;;;5085608;28;20125;-70
2021/03/13 03:28:21;;;;;;;12.20;3.42;;;3.20;99.90;;;;;;5084686;28;20035;-71
2021/03/13 03:30:51;;;;;;;6.10;2.83;;;3.30;99.90;;;;;;5085518;28;20123;-72
2021/03/13 03:33:17;;;;;;;6.95;2.30;;;3.30;99.90;;;;;;5084320;28;20032;-71
2021/03/13 03:35:43;;;;;;;13.52;2.67;;;3.30;99.90;;;;;;5085513;28;20100;-70
2021/03/13 03:38:12;;;;;;;6.13;2.97;;;3.40;99.90;;;;;;5085569;28;20055;-71
2021/03/13 03:40:41;;;;;;;8.80;2.58;;;3.40;99.90;;;;;;5084210;28;20416;-70
2021/03/13 03:43:13;;;;;;;5.13;2.38;;;3.40;99.90;;;;;;5085441;28;20031;-72
2021/03/13 03:45:53;;;;;;;13.38;2.70;;;3.40;99.90;;;;;;5084042;28;20037;-70
2021/03/13 03:48:21;;;;;;;14.73;3.13;;;3.50;99.90;;;;;;5084990;28;20024;-69
2021/03/13 03:50:47;;;;;;;9.75;2.97;;;3.50;99.90;;;;;;5083644;28;20070;-71
2021/03/13 03:53:18;;;;;;;10.98;3.08;;;3.50;99.90;;;;;;5085178;28;20147;-71
2021/03/13 03:55:47;;;;;;;6.10;2.70;;;3.60;99.90;;;;;;5083963;28;20127;-72
2021/03/13 03:58:24;;;;;;;7.15;3.15;;;3.60;99.90;;;;;;5083972;28;20025;-70
2021/03/13 04:00:51;;;;;;;10.75;3.60;;;3.70;99.90;;;;;;5084985;28;20072;-72
2021/03/13 04:03:19;;;;;;;10.65;3.33;;;3.70;99.90;;;;;;5084759;28;20522;-71
2021/03/13 04:05:47;;;;;;;4.95;2.72;;;3.70;99.90;;;;;;5083950;28;20385;-72
2021/03/13 04:08:16;;;;;;;6.13;3.05;;;3.70;99.90;;;;;;5085103;28;20017;-70
2021/03/13 04:10:47;;;;;;;12.45;3.17;;;3.80;99.90;;;;;;5083102;28;20429;-71
2021/03/13 04:13:18;;;;;;;9.77;3.30;;;3.80;99.90;;;;;;5084989;28;20054;-72
2021/03/13 04:15:46;;;;;;;12.00;3.55;;;3.80;99.90;;;;;;5084975;28;20064;-73
2021/03/13 04:18:13;;;;;;;6.50;2.58;;;3.90;99.90;;;;;;5083553;28;20032;-70
2021/03/13 04:20:40;;;;;;;8.07;2.67;;;3.90;99.90;;;;;;5085047;28;20024;-71
2021/03/13 04:23:07;;;;;;;6.18;3.20;;;4.00;99.90;;;;;;5084576;28;20040;-71
2021/03/13 04:25:35;;;;;;;22.83;2.40;;;4.00;99.90;;;;;;5084647;28;20035;-71
2021/03/13 04:28:01;;;;;;;6.50;3.20;;;4.10;99.90;;;;;;5084778;28;20029;-70
2021/03/13 04:30:26;;;;;;;6.35;1.70;;;4.10;99.90;;;;;;5084824;28;20024;-69
2021/03/13 04:32:55;;;;;;;3.35;1.77;;;4.20;99.90;;;;;;5084657;28;20028;-71
2021/03/13 04:35:21;;;;;;;16.23;3.45;;;4.30;99.90;;;;;;5084611;28;20031;-72
2021/03/13 04:37:48;;;;;;;12.93;3.03;;;4.30;99.90;;;;;;5084750;28;20108;-73
2021/03/13 04:40:17;;;;;;;7.30;2.58;;;4.30;99.90;;;;;;5087642;28;20056;-69
2021/03/13 04:42:44;;;;;;;10.18;2.58;;;4.40;99.90;;;;;;5087667;28;20024;-72
2021/03/13 04:45:12;;;;;;;3.75;1.63;;;4.40;99.90;;;;;;5089149;28;20111;-74
2021/03/13 04:47:47;;;;;;;6.28;2.90;;;4.50;99.90;;;;;;5087274;28;20024;-72
2021/03/13 04:50:16;;;;;;;6.93;2.42;;;4.50;99.90;;;;;;5088919;28;20078;-71
2021/03/13 04:52:42;;;;;;;6.25;2.60;;;4.60;99.90;;;;;;5087249;28;20032;-71
2021/03/13 04:55:08;;;;;;;6.90;2.55;;;4.60;99.90;;;;;;5088745;28;20039;-72
2021/03/13 04:57:34;;;;;;;5.78;2.67;;;4.60;99.90;;;;;;5088650;28;20504;-70
2021/03/13 05:00:00;;;;;;;5.97;2.30;;;4.70;99.90;;;;;;5088567;28;20032;-74
2021/03/13 05:02:25;;;;;;;7.65;2.30;;;4.70;99.90;;;;;;5088447;28;20029;-72
2021/03/13 05:04:51;;;;;;;10.40;2.78;;;4.70;99.90;;;;;;5087028;28;20025;-70
2021/03/13 05:07:16;;;;;;;8.38;2.97;;;4.70;99.90;;;;;;5088152;28;20052;-70
2021/03/13 05:09:43;;;;;;;8.02;3.15;;;4.80;99.90;;;;;;5088089;28;20094;-73
2021/03/13 05:12:09;;;;;;;9.02;3.95;;;4.80;99.90;;;;;;5088286;28;20043;-71
2021/03/13 05:14:34;;;;;;;7.80;4.03;;;4.80;99.90;;;;;;5086818;28;20111;-71
2021/03/13 05:17:03;;;;;;;11.02;4.72;;;4.80;99.90;;;;;;5088110;28;20891;-70
2021/03/13 05:19:29;;;;;;;11.75;4.07;;;4.80;99.90;;;;;;5087815;28;20062;-74
2021/03/13 05:21:55;;;;;;;12.73;5.30;;;4.80;99.90;;;;;;5087845;28;20020;-73
2021/03/13 05:24:20;;;;;;;16.48;4.65;;;4.90;99.90;;;;;;5087569;28;20036;-72
2021/03/13 05:26:49;;;;;;;9.23;4.93;;;4.80;99.90;;;;;;5085520;28;20458;-70
2021/03/13 05:29:14;;;;;;;16.48;5.90;;;4.80;99.90;;;;;;5083867;28;20028;-71
2021/03/13 05:31:40;;;;;;;14.65;5.10;;;4.90;99.90;;;;;;5086744;28;20032;-73
2021/03/13 05:34:05;;;;;;;12.73;5.88;;;4.80;99.90;;;;;;5086399;28;20032;-70
2021/03/13 05:36:31;;;;;;;12.70;5.22;;;4.90;99.90;;;;;;5086242;28;20024;-70
2021/03/13 05:39:03;;;;;;;8.60;4.35;;;4.90;99.90;;;;;;5084925;28;20033;-71
2021/03/13 05:41:31;;;;;;;6.95;4.53;;;4.90;99.90;;;;;;5087538;28;20081;-72
2021/03/13 05:44:05;;;;;;;11.82;5.47;;;4.90;99.90;;;;;;5085944;28;20032;-69
2021/03/13 05:46:38;;;;;;;6.68;2.95;;;4.90;99.90;;;;;;5087289;28;20105;-71
2021/03/13 05:49:08;;;;;;;13.13;4.60;;;4.90;99.90;;;;;;5087414;28;20025;-71
2021/03/13 05:51:37;;;;;;;11.90;3.05;;;5.00;99.90;;;;;;5086141;28;20040;-72
2021/03/13 05:54:05;;;;;;;8.32;3.10;;;4.90;99.90;;;;;;5087256;28;20462;-72
2021/03/13 05:56:31;;;;;;;7.15;3.50;;;4.90;99.90;;;;;;5086015;28;20035;-74
2021/03/13 05:59:01;;;;;;;11.73;4.90;;;5.00;99.90;;;;;;5082924;28;20110;-78
2021/03/13 06:01:28;;;;;;;10.02;4.20;;;5.00;99.90;;;;;;5076979;28;20083;-72
2021/03/13 06:03:57;;;;;;;8.13;3.67;;;4.90;99.90;;;;;;5080811;28;20039;-76
2021/03/13 06:06:25;;;;;;;5.07;2.80;;;4.90;99.90;;;;;;5064821;28;20102;-75
2021/03/13 06:08:53;;;;;;;9.00;4.40;;;5.00;99.90;;;;;;5068457;28;20327;-77
2021/03/13 06:11:21;;;;;;;7.18;3.13;;;5.00;99.90;;;;;;5076732;28;20056;-75
2021/03/13 06:13:47;;;;;;;8.32;2.75;;;5.00;99.90;;;;;;5087015;28;20032;-76
2021/03/13 06:16:13;;;;;;;5.10;2.65;;;4.90;99.90;;;;;;5087184;28;20392;-74
2021/03/13 06:18:48;;;;;;;3.95;1.85;;;4.90;99.90;;;;;;5085748;28;20037;-75
2021/03/13 06:21:33;;;;;;;8.65;2.13;;;4.90;99.90;;;;;;5083451;28;20059;-76
2021/03/13 06:24:13;;;;;;;6.22;2.72;;;4.90;99.90;;;;;;5066707;28;20029;-76
2021/03/13 06:26:56;;;;;;;5.90;2.40;;;4.90;99.90;;;;;;5066796;28;20385;-73
2021/03/13 06:29:23;;;;;;;6.68;2.05;;;4.80;99.90;;;;;;5082123;28;20096;-76
2021/03/13 06:32:14;;;;;;;6.03;1.52;;;4.90;99.90;;;;;;5086358;28;20040;-76
2021/03/13 06:34:41;;;;;;;8.07;2.53;;;4.90;99.90;;;;;;5067381;28;20025;-73
2021/03/13 06:37:27;;;;;;;5.45;1.92;;;4.90;99.90;;;;;;5081859;28;20067;-73
2021/03/13 06:39:55;;;;;;;5.57;2.38;;;4.90;99.90;;;;;;5068404;28;20036;-76
2021/03/13 06:42:27;;;;;;;3.67;2.15;;;5.00;99.90;;;;;;5071880;28;20021;-78
2021/03/13 06:45:00;;;;;;;6.65;2.75;;;4.90;99.90;;;;;;5080910;28;20041;-76
2021/03/13 06:47:37;;;;;;;2.35;1.50;;;4.90;99.90;;;;;;5086211;28;20104;-74
2021/03/13 06:50:20;;;;;;;3.97;1.70;;;4.90;99.90;;;;;;5086125;28;20521;-75
2021/03/13 06:52:50;;;;;;;1.95;1.48;;;4.90;99.90;;;;;;5084904;28;20086;-76
2021/03/13 06:55:25;;;;;;;4.60;2.13;;;4.90;99.90;;;;;;5086378;28;20024;-74
2021/03/13 06:58:04;;;;;;;1.77;1.33;;;4.80;99.90;;;;;;5084901;28;20047;-74
2021/03/13 07:00:32;;;;;;;2.97;1.75;;;4.90;99.90;;;;;;5084508;28;20024;-73
2021/03/13 07:03:05;;;;;;;3.92;1.52;;;4.80;99.90;;;;;;5085478;28;20177;-77
2021/03/13 07:05:30;;;;;;;4.20;1.83;;;4.80;99.90;;;;;;5084784;28;20036;-71
2021/03/13 07:07:56;;;;;;;3.15;1.40;;;4.90;99.90;;;;;;5084545;28;20025;-73
2021/03/13 07:10:27;;;;;;;3.80;2.08;;;4.90;99.90;;;;;;5083242;28;20075;-76
2021/03/13 07:12:53;;;;;;;2.45;1.50;;;4.80;99.90;;;;;;5081054;28;20032;-73
2021/03/13 07:15:20;;;;;;;2.55;1.40;;;4.80;99.90;;;;;;5065759;28;20056;-73
2021/03/13 07:17:56;;;;;;;4.28;2.33;;;4.90;99.90;;;;;;5065789;28;20032;-75
2021/03/13 07:20:32;;;;;;;4.35;1.73;;;4.90;99.90;;;;;;5074819;28;20028;-76
2021/03/13 07:22:59;;;;;;;3.35;1.60;;;4.90;99.90;;;;;;5081141;28;20029;-75
2021/03/13 07:25:27;;;;;;;2.85;1.75;;;4.90;99.90;;;;;;5085226;28;20052;-75
2021/03/13 07:27:57;;;;;;;4.05;1.88;;;5.00;99.90;;;;;;5078585;28;20029;-77
2021/03/13 07:30:25;;;;;;;3.25;1.80;;;5.00;99.90;;;;;;5080590;28;20025;-75
2021/03/13 07:33:01;;;;;;;1.25;0.95;;;5.00;99.90;;;;;;5071104;28;20122;-75
2021/03/13 07:35:30;;;;;;;1.45;1.08;;;5.00;99.90;;;;;;5074001;28;20033;-76
2021/03/13 07:37:58;;;;;;;5.75;1.55;;;5.00;99.90;;;;;;5076141;28;20032;-75
2021/03/13 07:40:23;;;;;;;1.48;1.15;;;5.00;99.90;;;;;;5080191;28;20020;-75
2021/03/13 07:42:50;;;;;;;2.03;0.80;;;5.00;99.90;;;;;;5079402;28;20021;-74
2021/03/13 07:45:18;;;;;;;0.93;0.80;;;5.00;99.90;;;;;;5080726;28;20052;-77
2021/03/13 07:47:44;;;;;;;1.48;0.52;;;5.00;99.90;;;;;;5065151;28;20035;-75
2021/03/13 07:50:13;;;;;;;1.77;0.98;;;5.00;99.90;;;;;;5065479;28;20044;-75
2021/03/13 07:52:48;;;;;;;1.70;1.10;;;5.00;99.90;;;;;;5065058;28;20389;-74
2021/03/13 07:55:15;;;;;;;2.03;1.10;;;5.10;99.90;;;;;;5065312;28;20025;-77
2021/03/13 07:57:46;;;;;;;4.85;1.23;;;5.10;99.90;;;;;;5063684;28;20024;-72
2021/03/13 08:00:13;;;;;;;1.45;0.98;;;5.10;99.90;;;;;;5068253;28;20047;-74
2021/03/13 08:02:39;;;;;;;2.50;1.17;;;5.10;99.90;;;;;;5068615;28;20025;-75
2021/03/13 08:05:14;;;;;;;0.55;0.52;;;5.10;99.90;;;;;;5080194;28;20448;-76
2021/03/13 08:07:58;;;;;;;;;;;5.10;99.90;;;;;;5080671;28;20037;-73
2021/03/13 08:10:53;;;;;;;2.33;0.75;;;5.20;99.90;;;;;;5063065;28;19967;-74
2021/03/13 08:13:27;;;;;;;1.17;0.73;;;5.20;99.90;;;;;;5064268;28;20041;-76
2021/03/13 08:16:04;;;;;;;2.33;1.63;;;5.20;99.90;;;;;;5064422;28;20033;-72
2021/03/13 08:18:51;;;;;;;4.47;1.05;;;5.20;99.90;;;;;;5064602;28;20112;-73
2021/03/13 08:21:20;;;;;;;2.38;1.20;;;5.20;99.90;;;;;;5065084;28;20051;-77
2021/03/13 08:24:01;;;;;;;1.10;0.90;;;5.30;99.90;;;;;;5064633;28;20063;-73
2021/03/13 08:26:36;;;;;;;1.30;0.70;;;5.30;99.90;;;;;;5064753;28;20029;-75
2021/03/13 08:29:07;;;;;;;2.47;0.80;;;5.40;99.90;;;;;;5077111;28;20036;-75
2021/03/13 08:31:35;;;;;;;1.60;1.00;;;5.30;99.90;;;;;;5077679;28;20037;-76
2021/03/13 08:34:07;;;;;;;1.60;1.13;;;5.40;99.90;;;;;;5084203;28;20071;-75
2021/03/13 08:36:50;;;;;;;2.03;1.20;;;5.30;99.90;;;;;;5084247;28;20031;-76
2021/03/13 08:39:37;;;;;;;0.95;0.50;;;5.40;99.90;;;;;;5076067;28;20377;-76
2021/03/13 08:42:09;;;;;;;2.30;1.10;;;5.50;99.90;;;;;;5064040;28;20033;-74
2021/03/13 08:44:36;;;;;;;3.30;2.20;;;5.50;99.90;;;;;;5062989;28;20120;-73
2021/03/13 08:47:08;;;;;;;2.72;1.60;;;5.60;99.90;;;;;;5062263;28;20082;-72
2021/03/13 08:49:43;;;;;;;3.55;1.17;;;5.60;99.90;;;;;;5063701;28;20029;-76
2021/03/13 08:52:09;;;;;;;4.03;1.75;;;5.60;99.90;;;;;;5062850;28;20041;-77
2021/03/13 08:54:38;;;;;;;2.83;1.42;;;5.60;99.90;;;;;;5063826;28;20029;-76
2021/03/13 08:57:08;;;;;;;2.08;1.38;;;5.60;99.90;;;;;;5062570;28;20040;-75
2021/03/13 08:59:35;;;;;;;2.50;1.20;;;5.60;99.90;;;;;;5061557;28;20041;-75
2021/03/13 09:02:18;;;;;;;1.58;1.15;;;5.60;99.90;;;;;;5066202;28;20032;-79
2021/03/13 09:04:47;;;;;;;10.93;2.00;;;5.50;99.90;;;;;;5067823;28;20036;-76
2021/03/13 09:07:13;;;;;;;1.25;0.45;;;5.50;99.90;;;;;;5082801;28;20119;-75
2021/03/13 09:09:41;;;;;;;1.00;0.77;;;5.50;99.90;;;;;;5066389;28;20187;-75
2021/03/13 09:12:11;;;;;;;1.73;0.85;;;5.50;99.90;;;;;;5063858;28;20047;-75
2021/03/13 09:14:43;;;;;;;1.58;0.82;;;5.50;99.90;;;;;;5082635;28;20461;-72
2021/03/13 09:17:13;;;;;;;1.40;0.75;;;5.40;99.90;;;;;;5083551;28;20401;-75
2021/03/13 09:19:40;;;;;;;6.90;1.85;;;5.50;99.90;;;;;;5077818;28;20029;-72
2021/03/13 09:22:21;;;;;;;5.50;0.30;;;5.50;99.90;;;;;;5068673;28;20020;-73
2021/03/13 09:24:59;;;;;;;4.40;0.93;;;5.50;99.90;;;;;;5078990;28;20033;-71
2021/03/13 09:27:27;;;;;;;1.42;0.50;;;5.60;99.90;;;;;;5069967;28;20040;-72
2021/03/13 09:29:55;;;;;;;1.75;0.50;;;5.80;99.90;;;;;;5084514;28;20036;-75
2021/03/13 09:32:22;;;;;;;7.38;1.42;;;5.90;99.90;;;;;;5082202;28;20064;-72
2021/03/13 09:34:53;;;;;;;4.05;0.80;;;5.80;99.90;;;;;;5067772;28;20025;-73
2021/03/13 09:37:20;;;;;;;3.25;1.25;;;5.90;99.90;;;;;;5066221;28;20031;-72
2021/03/13 09:39:51;;;;;;;1.70;0.40;;;5.90;99.90;;;;;;5077521;28;20028;-75
2021/03/13 09:42:22;;;;;;;5.38;1.52;;;6.10;99.90;;;;;;5083275;28;20029;-72
2021/03/13 09:44:52;;;;;;;5.03;0.77;;;6.30;99.90;;;;;;5082847;28;20036;-72
2021/03/13 09:47:25;;;;;;;3.75;1.27;;;6.60;99.90;;;;;;5067102;28;20033;-74
2021/03/13 09:49:53;;;;;;;0.95;0.73;;;6.90;99.90;;;;;;5084693;28;20060;-73
2021/03/13 09:52:25;;;;;;;1.20;0.60;;;7.20;99.90;;;;;;5085871;28;20054;-75
2021/03/13 09:55:02;;;;;;;1.42;1.10;;;7.40;99.90;;;;;;5085849;28;20032;-72
2021/03/13 09:57:29;;;;;;;10.82;1.95;;;7.60;99.90;;;;;;5085283;28;20024;-74
2021/03/13 09:59:55;;;;;;;7.60;1.50;;;7.70;99.90;;;;;;5076565;28;20028;-72
2021/03/13 10:02:21;;;;;;;2.03;1.30;;;7.80;99.90;;;;;;5070609;28;20032;-74
2021/03/13 10:04:52;;;;;;;6.75;1.02;;;8.00;99.90;;;;;;5082974;28;20028;-72
2021/03/13 10:07:19;;;;;;;5.00;1.83;;;8.20;99.90;;;;;;5085605;28;20024;-73
2021/03/13 10:10:00;;;;;;;9.68;0.93;;;8.40;99.90;;;;;;5069227;28;20388;-72
2021/03/13 10:12:37;;;;;;;1.88;1.00;;;8.50;99.90;;;;;;5066882;28;20044;-70
2021/03/13 10:15:25;;;;;;;10.45;1.58;;;8.30;99.90;;;;;;5085737;28;20507;-71
2021/03/13 10:17:59;;;;;;;1.20;0.85;;;8.10;99.90;;;;;;5084668;28;20049;-77
2021/03/13 10:20:30;;;;;;;1.37;0.73;;;7.90;99.90;;;;;;5071829;28;20041;-75
2021/03/13 10:23:05;;;;;;;4.00;1.15;;;7.80;99.90;;;;;;5080231;28;20310;-74
2021/03/13 10:25:32;;;;;;;5.20;1.00;;;7.70;99.90;;;;;;5073144;28;20481;-74
2021/03/13 10:28:07;;;;;;;8.40;1.45;;;7.60;99.90;;;;;;5079773;28;20029;-71
2021/03/13 10:30:33;;;;;;;2.47;1.08;;;7.70;99.90;;;;;;5065673;28;20028;-74
2021/03/13 10:32:59;;;;;;;4.90;0.80;;;7.70;99.90;;;;;;5066514;28;20111;-73
2021/03/13 10:35:30;;;;;;;7.32;1.05;;;7.50;99.90;;;;;;5082385;28;20096;-72
2021/03/13 10:37:58;;;;;;;2.40;1.05;;;7.50;99.90;;;;;;5083634;28;20250;-73
2021/03/13 10:40:49;;;;;;;5.32;1.45;;;7.60;99.90;;;;;;5086395;28;20022;-73
2021/03/13 10:43:17;;;;;;;6.85;1.20;;;7.80;99.90;;;;;;5081435;28;20036;-75
2021/03/13 10:46:02;;;;;;;2.40;0.88;;;8.10;99.90;;;;;;5065228;28;20448;-74
2021/03/13 10:48:29;;;;;;;21.50;1.58;;;8.40;99.90;;;;;;5081455;28;20072;-75
2021/03/13 10:50:56;;;;;;;3.03;1.00;;;8.60;99.90;;;;;;5066070;28;20028;-74
2021/03/13 10:53:27;;;;;;;1.05;0.80;;;8.90;99.90;;;;;;5066161;28;20438;-74
2021/03/13 10:55:54;;;;;;;2.75;0.80;;;9.10;99.90;;;;;;5066135;28;20417;-74
2021/03/13 10:58:27;;;;;;;2.50;0.93;;;9.40;99.90;;;;;;5066217;28;20083;-76
2021/03/13 11:00:54;;;;;;;5.65;1.67;;;9.60;99.90;;;;;;5065623;28;20059;-73
2021/03/13 11:03:20;;;;;;;3.65;1.52;;;9.80;99.90;;;;;;5065942;28;20450;-74
2021/03/13 11:05:51;;;;;;;1.63;0.82;;;9.70;99.90;;;;;;5075942;28;20062;-75
2021/03/13 11:08:21;;;;;;;3.20;1.10;;;9.30;99.90;;;;;;5079077;28;20079;-73
2021/03/13 11:10:48;;;;;;;0.98;0.52;;;9.00;99.90;;;;;;5084169;28;20058;-76
2021/03/13 11:13:15;;;;;;;2.35;0.93;;;8.70;99.90;;;;;;5086173;28;20029;-74
2021/03/13 11:15:41;;;;;;;7.15;0.40;;;8.50;99.90;;;;;;5066537;28;20424;-73
2021/03/13 11:18:07;;;;;;;1.90;0.95;;;8.30;99.90;;;;;;5065820;28;20089;-77
2021/03/13 11:20:34;;;;;;;1.65;0.77;;;8.20;99.90;;;;;;5065432;28;20084;-75
2021/03/13 11:23:00;;;;;;;1.35;0.98;;;8.10;99.90;;;;;;5065718;28;20470;-76
2021/03/13 11:25:25;;;;;;;9.27;1.60;;;8.20;99.90;;;;;;5065429;28;20413;-76
2021/03/13 11:27:51;;;;;;;13.40;1.23;;;8.40;99.90;;;;;;5080615;28;20025;-75
2021/03/13 11:30:22;;;;;;;1.75;0.77;;;8.80;99.90;;;;;;5079875;28;20033;-75
2021/03/13 11:32:47;;;;;;;6.50;0.80;;;8.90;99.90;;;;;;5079249;28;20043;-73
2021/03/13 11:35:14;;;;;;;4.43;0.90;;;8.80;99.90;;;;;;5085287;28;20084;-74
2021/03/13 11:37:43;;;;;;;2.97;1.05;;;8.60;99.90;;;;;;5083608;28;20041;-75
2021/03/13 11:40:09;;;;;;;8.27;1.48;;;8.50;99.90;;;;;;5080497;28;20064;-74
2021/03/13 11:42:36;;;;;;;8.15;1.90;;;8.20;99.90;;;;;;5064894;28;20029;-75
2021/03/13 11:45:07;;;;;;;4.75;0.68;;;8.10;99.90;;;;;;5064822;28;20062;-75
2021/03/13 11:47:33;;;;;;;5.57;1.30;;;8.00;99.90;;;;;;5078064;28;20024;-73
2021/03/13 11:49:58;;;;;;;2.95;1.50;;;7.90;99.90;;;;;;5075770;28;20039;-74
2021/03/13 11:52:25;;;;;;;5.22;1.38;;;7.80;99.90;;;;;;5064321;28;20072;-74
2021/03/13 11:54:52;;;;;;;0.93;0.65;;;7.70;99.90;;;;;;5064902;28;20056;-77
2021/03/13 11:57:20;;;;;;;4.45;1.20;;;7.60;99.90;;;;;;5064885;28;20056;-72
2021/03/13 11:59:47;;;;;;;2.17;0.68;;;7.40;99.90;;;;;;5064824;28;20462;-75
2021/03/13 12:02:13;;;;;;;13.40;1.67;;;7.70;99.90;;;;;;5063243;28;20065;-76
2021/03/13 12:04:39;;;;;;;6.85;1.42;;;8.10;99.90;;;;;;5062948;28;20037;-74
2021/03/13 12:07:05;;;;;;;5.85;1.38;;;8.60;99.90;;;;;;5063044;28;20033;-73
2021/03/13 12:09:31;;;;;;;4.60;1.70;;;9.10;99.90;;;;;;5062546;28;20056;-75
2021/03/13 12:11:56;;;;;;;3.03;1.25;;;9.50;99.90;;;;;;5064455;28;20040;-74
2021/03/13 12:14:22;;;;;;;4.95;1.27;;;10.00;99.90;;;;;;5064889;28;20060;-76
2021/03/13 12:16:47;;;;;;;7.40;0.90;;;10.30;99.90;;;;;;5066233;28;20025;-77
2021/03/13 12:19:14;;;;;;;9.23;1.17;;;10.60;99.90;;;;;;5064926;28;20135;-76
2021/03/13 12:21:40;;;;;;;1.73;0.47;;;10.50;99.90;;;;;;5064675;28;20107;-73
2021/03/13 12:24:08;;;;;;;1.00;0.70;;;10.20;99.90;;;;;;5065868;28;20048;-75
2021/03/13 12:26:33;;;;;;;1.20;0.75;;;9.80;99.90;;;;;;5065407;28;20461;-73
2021/03/13 12:28:59;;;;;;;0.65;0.52;;;9.50;99.90;;;;;;5066277;28;20029;-73
2021/03/13 12:31:25;;;;;;;1.05;0.40;;;9.20;99.90;;;;;;5084109;28;20041;-75
2021/03/13 12:33:50;;;;;;;5.53;0.88;;;8.90;99.90;;;;;;5083262;28;20035;-73
2021/03/13 12:36:16;;;;;;;6.38;1.08;;;8.70;99.90;;;;;;5083448;28;20032;-72
2021/03/13 12:38:42;;;;;;;3.42;1.27;;;8.40;99.90;;;;;;5083228;28;20077;-75
2021/03/13 12:41:07;;;;;;;2.47;1.00;;;8.00;99.90;;;;;;5084525;28;20024;-74
2021/03/13 12:43:34;;;;;;;1.20;0.73;;;7.70;99.90;;;;;;5084602;28;20039;-74
2021/03/13 12:46:00;;;;;;;0.63;0.45;;;7.60;99.90;;;;;;5083057;28;20035;-74
2021/03/13 12:48:26;;;;;;;0.60;0.50;;;7.60;99.90;;;;;;5084227;28;20086;-73
2021/03/13 12:50:51;;;;;;;5.07;1.05;;;7.70;99.90;;;;;;5084537;28;20029;-73
2021/03/13 12:53:18;;;;;;;4.15;0.90;;;7.60;99.90;;;;;;5080936;28;20021;-74
2021/03/13 12:55:44;;;;;;;1.30;0.47;;;7.50;99.90;;;;;;5064571;28;20440;-74
2021/03/13 12:58:10;;;;;;;2.47;0.60;;;7.50;99.90;;;;;;5063190;28;20025;-75
2021/03/13 13:00:36;;;;;;;2.95;1.15;;;7.30;99.90;;;;;;5066293;28;20053;-74
2021/03/13 13:03:03;;;;;;;4.60;1.20;;;7.20;99.90;;;;;;5068194;28;20033;-76
2021/03/13 13:05:29;;;;;;;1.30;0.38;;;7.20;99.90;;;;;;5068338;28;20063;-74
2021/03/13 13:07:55;;;;;;;6.63;0.55;;;7.10;99.90;;;;;;5067767;28;20386;-75